createdAt,value
2022-12-25T00:00:20.728Z,40.08
2022-12-25T00:02:49.398Z,48.50
2022-12-25T00:05:17.449Z,54.47
2022-12-25T00:07:45.324Z,45.85
2022-12-25T00:10:13.426Z,48.60
2022-12-25T00:12:41.304Z,41.33
2022-12-25T00:15:09.954Z,47.42
2022-12-25T00:17:37.864Z,44.08
2022-12-25T00:20:06.708Z,44.20
2022-12-25T00:22:35.320Z,39.10
2022-12-25T00:25:03.411Z,36.17
2022-12-25T00:27:35.154Z,31.25
2022-12-25T00:30:03.003Z,28.35
2022-12-25T00:32:31.029Z,32.15
2022-12-25T00:34:58.714Z,29.17
2022-12-25T00:37:26.368Z,36.92
2022-12-25T00:39:54.084Z,29.80
2022-12-25T00:42:22.195Z,29.00
2022-12-25T00:44:50.910Z,16.42
2022-12-25T00:47:18.958Z,18.52
2022-12-25T00:49:46.779Z,16.75
2022-12-25T00:52:14.856Z,12.07
2022-12-25T00:54:42.623Z,12.20
2022-12-25T00:57:10.297Z,13.95
2022-12-25T00:59:37.968Z,16.45
2022-12-25T01:02:35.200Z,15.40
2022-12-25T01:05:03.410Z,13.57
2022-12-25T01:07:31.391Z,17.90
2022-12-25T01:10:19.291Z,16.03
2022-12-25T01:12:47.066Z,20.98
2022-12-25T01:15:14.932Z,22.95
2022-12-25T01:17:44.834Z,22.42
2022-12-25T01:20:15.301Z,20.13
2022-12-25T01:25:12.728Z,22.83
2022-12-25T01:27:42.132Z,28.30
2022-12-25T01:30:10.399Z,21.70
2022-12-25T01:32:38.200Z,19.95
2022-12-25T01:35:06.567Z,18.08
2022-12-25T01:37:34.308Z,18.77
2022-12-25T01:40:02.052Z,14.88
2022-12-25T01:42:30.301Z,12.63
2022-12-25T01:44:58.021Z,29.25
2022-12-25T01:47:25.824Z,20.92
2022-12-25T01:49:53.774Z,17.38
2022-12-25T01:52:25.456Z,24.75
2022-12-25T01:55:00.999Z,22.05
2022-12-25T01:57:35.109Z,28.40
2022-12-25T02:00:04.508Z,25.50
2022-12-25T02:02:32.994Z,26.52
2022-12-25T02:05:13.398Z,28.92
2022-12-25T02:07:42.612Z,31.17
2022-12-25T02:10:12.262Z,26.23
2022-12-25T02:12:41.368Z,26.65
2022-12-25T02:15:17.439Z,28.00
2022-12-25T02:17:57.440Z,28.98
2022-12-25T02:20:33.471Z,24.92
2022-12-25T02:23:22.302Z,19.35
2022-12-25T02:26:21.508Z,25.85
2022-12-25T02:29:12.223Z,20.35
2022-12-25T02:32:07.654Z,18.15
2022-12-25T02:34:36.842Z,21.13
2022-12-25T02:37:15.360Z,19.67
2022-12-25T02:39:58.304Z,20.77
2022-12-25T02:43:23.111Z,18.17
2022-12-25T02:46:19.212Z,16.58
2022-12-25T02:49:14.034Z,15.95
2022-12-25T02:52:05.774Z,16.50
2022-12-25T02:54:56.684Z,13.13
2022-12-25T02:57:54.236Z,11.52
2022-12-25T03:00:40.713Z,31.00
2022-12-25T03:03:29.705Z,17.55
2022-12-25T03:06:20.520Z,20.40
2022-12-25T03:08:54.554Z,21.85
2022-12-25T03:11:31.507Z,17.98
2022-12-25T03:14:26.578Z,18.73
2022-12-25T03:16:57.937Z,17.85
2022-12-25T03:19:49.480Z,18.58
2022-12-25T03:22:44.091Z,16.42
2022-12-25T03:25:30.925Z,18.10
2022-12-25T03:27:59.530Z,15.50
2022-12-25T03:31:03.317Z,21.63
2022-12-25T03:34:08.783Z,16.80
2022-12-25T03:36:48.379Z,18.23
2022-12-25T03:39:59.343Z,19.93
2022-12-25T03:42:55.799Z,22.25
2022-12-25T03:45:51.715Z,19.45
2022-12-25T03:48:43.390Z,24.85
2022-12-25T03:51:32.019Z,25.95
2022-12-25T03:54:24.529Z,27.08
2022-12-25T03:57:10.995Z,22.80
2022-12-25T03:59:57.756Z,15.95
2022-12-25T04:02:44.411Z,18.45
2022-12-25T04:05:30.740Z,20.15
2022-12-25T04:08:16.915Z,26.50
2022-12-25T04:11:03.520Z,25.52
2022-12-25T04:13:49.759Z,22.60
2022-12-25T04:16:36.236Z,16.90
2022-12-25T04:19:22.478Z,17.67
2022-12-25T04:22:08.627Z,22.20
2022-12-25T04:24:54.922Z,19.05
2022-12-25T04:27:41.147Z,25.42
2022-12-25T04:30:28.396Z,28.10
2022-12-25T04:33:18.160Z,25.80
2022-12-25T04:36:07.717Z,18.37
2022-12-25T04:38:36.036Z,16.13
2022-12-25T04:41:04.081Z,13.75
2022-12-25T04:43:31.778Z,15.32
2022-12-25T04:46:02.134Z,12.60
2022-12-25T04:50:59.022Z,15.07
2022-12-25T04:53:26.738Z,15.68
2022-12-25T04:56:01.746Z,16.45
2022-12-25T04:58:29.810Z,21.40
2022-12-25T05:01:00.830Z,14.32
2022-12-25T05:03:29.225Z,13.80
2022-12-25T05:05:57.043Z,10.57
2022-12-25T05:08:24.783Z,11.50
2022-12-25T05:10:52.541Z,13.13
2022-12-25T05:13:20.537Z,14.40
2022-12-25T05:15:48.345Z,17.60
2022-12-25T05:18:16.159Z,26.23
2022-12-25T05:20:51.131Z,38.80
2022-12-25T05:23:19.169Z,16.48
2022-12-25T05:25:46.903Z,18.60
2022-12-25T05:28:14.680Z,13.07
2022-12-25T05:30:42.873Z,13.20
2022-12-25T05:33:10.969Z,9.25
2022-12-25T05:35:39.981Z,12.40
2022-12-25T05:38:08.441Z,16.13
2022-12-25T05:40:40.329Z,27.80
2022-12-25T05:43:08.289Z,51.05
2022-12-25T05:45:36.448Z,37.80
2022-12-25T05:48:04.335Z,32.78
2022-12-25T05:50:32.072Z,34.25
2022-12-25T05:53:08.494Z,50.50
2022-12-25T05:55:37.775Z,30.80
2022-12-25T05:58:06.579Z,25.38
2022-12-25T06:00:35.342Z,39.05
2022-12-25T06:03:03.440Z,34.80
2022-12-25T06:05:31.904Z,27.98
2022-12-25T06:07:59.700Z,18.88
2022-12-25T06:10:27.299Z,25.73
2022-12-25T06:12:55.391Z,26.23
2022-12-25T06:15:23.013Z,32.30
2022-12-25T06:17:50.770Z,25.20
2022-12-25T06:20:18.685Z,36.13
2022-12-25T06:22:46.593Z,32.40
2022-12-25T06:25:14.577Z,37.15
2022-12-25T06:27:42.323Z,26.50
2022-12-25T06:30:10.491Z,29.23
2022-12-25T06:32:38.510Z,26.30
2022-12-25T06:35:06.870Z,30.85
2022-12-25T06:37:34.514Z,28.10
2022-12-25T06:40:02.320Z,22.80
2022-12-25T06:42:30.505Z,20.00
2022-12-25T06:44:58.117Z,24.45
2022-12-25T06:47:26.062Z,23.40
2022-12-25T06:49:53.957Z,23.58
2022-12-25T06:52:21.573Z,22.00
2022-12-25T06:54:49.373Z,25.33
2022-12-25T06:57:19.416Z,25.75
2022-12-25T06:59:51.371Z,19.80
2022-12-25T07:02:24.670Z,17.50
2022-12-25T07:04:54.103Z,16.08
2022-12-25T07:07:23.739Z,16.20
2022-12-25T07:09:51.562Z,69.97
2022-12-25T07:12:24.262Z,48.45
2022-12-25T07:14:55.184Z,21.45
2022-12-25T07:17:24.485Z,21.08
2022-12-25T07:19:52.706Z,12.50
2022-12-25T07:22:20.410Z,12.63
2022-12-25T07:24:48.370Z,15.13
2022-12-25T07:27:16.294Z,16.15
2022-12-25T07:29:43.968Z,19.73
2022-12-25T07:32:12.844Z,39.97
2022-12-25T07:34:40.754Z,28.00
2022-12-25T07:37:08.546Z,26.33
2022-12-25T07:39:36.626Z,36.05
2022-12-25T07:42:05.071Z,26.73
2022-12-25T07:44:33.393Z,24.33
2022-12-25T07:47:01.580Z,36.47
2022-12-25T07:49:29.906Z,18.63
2022-12-25T07:51:58.115Z,27.42
2022-12-25T07:54:26.163Z,41.97
2022-12-25T07:56:54.354Z,30.42
2022-12-25T07:59:22.509Z,39.75
2022-12-25T08:01:51.157Z,32.75
2022-12-25T08:04:19.449Z,51.97
2022-12-25T08:06:47.522Z,22.23
2022-12-25T08:09:15.580Z,44.08
2022-12-25T08:11:49.599Z,38.95
2022-12-25T08:14:17.434Z,40.70
2022-12-25T08:16:47.341Z,23.33
2022-12-25T08:19:15.793Z,37.13
2022-12-25T08:21:45.117Z,47.92
2022-12-25T08:24:12.958Z,30.75
2022-12-25T08:26:40.673Z,39.13
2022-12-25T08:29:08.850Z,70.38
2022-12-25T08:31:42.472Z,36.45
2022-12-25T08:34:14.145Z,51.80
2022-12-25T08:36:42.260Z,57.53
2022-12-25T08:39:11.269Z,72.22
2022-12-25T08:41:39.605Z,35.60
2022-12-25T08:44:07.569Z,27.85
2022-12-25T08:46:35.461Z,46.72
2022-12-25T08:49:03.746Z,48.90
2022-12-25T08:51:31.821Z,28.00
2022-12-25T08:54:02.467Z,45.42
2022-12-25T08:56:30.845Z,25.50
2022-12-25T08:58:58.581Z,26.55
2022-12-25T09:01:26.901Z,35.60
2022-12-25T09:03:54.895Z,46.95
2022-12-25T09:06:22.899Z,42.13
2022-12-25T09:08:50.973Z,32.55
2022-12-25T09:11:20.419Z,34.40
2022-12-25T09:13:49.086Z,30.05
2022-12-25T09:16:20.475Z,26.23
2022-12-25T09:18:49.151Z,22.33
2022-12-25T09:21:18.056Z,24.92
2022-12-25T09:23:45.989Z,22.45
2022-12-25T09:26:16.433Z,26.60
2022-12-25T09:31:21.640Z,23.85
2022-12-25T09:33:50.511Z,39.17
2022-12-25T09:36:23.685Z,44.30
2022-12-25T09:38:53.088Z,48.00
2022-12-25T09:41:32.100Z,27.85
2022-12-25T09:44:17.237Z,41.28
2022-12-25T09:46:54.245Z,36.55
2022-12-25T09:49:30.807Z,32.15
2022-12-25T09:52:04.941Z,32.42
2022-12-25T09:54:59.726Z,44.30
2022-12-25T09:57:27.603Z,26.20
2022-12-25T09:59:56.688Z,25.95
2022-12-25T10:02:37.665Z,24.17
2022-12-25T10:05:18.250Z,26.30
2022-12-25T10:10:49.192Z,19.33
2022-12-25T10:13:48.755Z,17.48
2022-12-25T10:20:08.466Z,16.30
2022-12-25T10:22:44.359Z,18.25
2022-12-25T10:25:20.847Z,19.20
2022-12-25T10:27:58.765Z,17.25
2022-12-25T10:30:28.964Z,15.93
2022-12-25T10:32:58.391Z,17.83
2022-12-25T10:35:29.014Z,16.50
2022-12-25T10:38:19.911Z,18.40
2022-12-25T10:41:03.325Z,23.25
2022-12-25T10:43:49.320Z,21.83
2022-12-25T10:46:19.194Z,25.15
2022-12-25T10:49:03.316Z,28.27
2022-12-25T10:51:35.243Z,24.17
2022-12-25T10:54:25.540Z,29.63
2022-12-25T10:56:55.990Z,31.08
2022-12-25T11:01:55.344Z,34.00
2022-12-25T11:04:28.917Z,34.70
2022-12-25T11:07:06.870Z,34.10
2022-12-25T11:09:35.401Z,35.90
2022-12-25T11:12:03.530Z,35.10
2022-12-25T11:14:34.539Z,41.38
2022-12-25T11:17:10.101Z,39.05
2022-12-25T11:19:41.019Z,43.47
2022-12-25T11:24:45.222Z,34.65
2022-12-25T11:27:28.803Z,32.00
2022-12-25T11:30:04.455Z,31.13
2022-12-25T11:32:36.552Z,30.63
2022-12-25T11:35:17.802Z,28.17
2022-12-25T11:37:51.719Z,30.52
2022-12-25T11:40:30.709Z,28.27
2022-12-25T11:43:09.174Z,30.73
2022-12-25T11:45:59.971Z,32.85
2022-12-25T11:48:37.227Z,32.38
2022-12-25T11:51:07.974Z,22.33
2022-12-25T11:53:39.996Z,20.75
2022-12-25T11:56:12.135Z,17.77
2022-12-25T11:58:45.384Z,22.65
2022-12-25T12:01:39.202Z,25.40
2022-12-25T12:04:25.816Z,28.13
2022-12-25T12:07:18.645Z,39.28
2022-12-25T12:10:04.582Z,37.10
2022-12-25T12:12:48.302Z,23.83
2022-12-25T12:15:45.636Z,26.10
2022-12-25T12:18:30.339Z,20.45
2022-12-25T12:21:22.163Z,22.90
2022-12-25T12:24:07.497Z,30.98
2022-12-25T12:26:39.636Z,26.55
2022-12-25T12:29:19.922Z,25.00
2022-12-25T12:31:49.895Z,22.88
2022-12-25T12:34:35.141Z,24.98
2022-12-25T12:37:11.858Z,26.95
2022-12-25T12:39:42.407Z,26.00
2022-12-25T12:42:17.176Z,34.67
2022-12-25T12:44:48.433Z,41.05
2022-12-25T12:47:35.497Z,22.17
2022-12-25T12:50:04.722Z,71.90
2022-12-25T12:52:39.081Z,63.47
2022-12-25T12:55:13.576Z,36.78
2022-12-25T12:57:43.179Z,28.15
2022-12-25T13:00:19.678Z,25.07
2022-12-25T13:03:15.732Z,27.60
2022-12-25T13:06:03.215Z,29.30
2022-12-25T13:08:53.051Z,26.50
2022-12-25T13:11:25.445Z,20.65
2022-12-25T13:13:55.802Z,18.52
2022-12-25T13:16:35.262Z,27.00
2022-12-25T13:19:16.103Z,23.30
2022-12-25T13:21:55.713Z,31.02
2022-12-25T13:24:33.254Z,45.38
2022-12-25T13:27:03.061Z,58.85
2022-12-25T13:29:40.492Z,51.90
2022-12-25T13:32:35.709Z,65.88
2022-12-25T13:35:05.749Z,43.47
2022-12-25T13:37:34.503Z,48.70
2022-12-25T13:40:07.271Z,43.88
2022-12-25T13:42:39.005Z,37.47
2022-12-25T13:45:13.815Z,27.25
2022-12-25T13:47:53.075Z,63.47
2022-12-25T13:50:31.163Z,61.17
2022-12-25T13:53:14.862Z,75.13
2022-12-25T13:55:52.923Z,81.18
2022-12-25T13:58:29.932Z,70.65
2022-12-25T14:01:01.678Z,50.20
2022-12-25T14:03:37.781Z,82.90
2022-12-25T14:06:21.286Z,81.97
2022-12-25T14:08:50.455Z,76.25
2022-12-25T14:11:21.251Z,75.57
2022-12-25T14:13:52.906Z,66.88
2022-12-25T14:16:22.219Z,70.97
2022-12-25T14:18:59.448Z,70.53
2022-12-25T14:21:50.191Z,70.28
2022-12-25T14:24:21.351Z,70.88
2022-12-25T14:27:01.205Z,59.78
2022-12-25T14:29:37.984Z,63.92
2022-12-25T14:32:18.215Z,70.60
2022-12-25T14:34:48.112Z,62.75
2022-12-25T14:37:23.427Z,54.20
2022-12-25T14:39:57.746Z,48.97
2022-12-25T14:42:31.609Z,66.13
2022-12-25T14:45:05.247Z,59.92
2022-12-25T14:47:50.395Z,61.63
2022-12-25T14:50:37.610Z,58.78
2022-12-25T14:53:17.833Z,71.68
2022-12-25T14:55:54.500Z,65.57
2022-12-25T14:58:26.055Z,64.45
2022-12-25T15:01:05.084Z,59.55
2022-12-25T15:03:37.230Z,64.10
2022-12-25T15:06:22.939Z,65.57
2022-12-25T15:09:02.149Z,71.97
2022-12-25T15:11:30.910Z,61.88
2022-12-25T15:13:58.841Z,57.97
2022-12-25T15:16:34.669Z,71.72
2022-12-25T15:19:02.860Z,75.82
2022-12-25T15:21:33.879Z,61.95
2022-12-25T15:24:01.755Z,68.63
2022-12-25T15:26:31.709Z,74.28
2022-12-25T15:28:59.613Z,79.25
2022-12-25T15:31:33.771Z,47.45
2022-12-25T15:34:04.301Z,102.20
2022-12-25T15:36:32.774Z,113.30
2022-12-25T15:39:02.459Z,70.88
2022-12-25T15:41:55.535Z,59.25
2022-12-25T15:44:25.900Z,83.90
2022-12-25T15:46:54.012Z,170.18
2022-12-25T15:49:21.887Z,114.30
2022-12-25T15:55:47.580Z,112.43
2022-12-25T15:58:15.934Z,110.10
2022-12-25T16:00:43.884Z,120.32
2022-12-25T16:03:11.986Z,99.10
2022-12-25T16:05:40.175Z,92.95
2022-12-25T16:08:09.616Z,88.13
2022-12-25T16:10:39.193Z,77.35
2022-12-25T16:13:08.861Z,78.32
2022-12-25T16:15:39.212Z,76.53
2022-12-25T16:18:07.928Z,77.68
2022-12-25T16:20:36.283Z,80.07
2022-12-25T16:23:07.602Z,89.00
2022-12-25T16:25:36.349Z,103.35
2022-12-25T16:28:04.591Z,109.93
2022-12-25T16:30:32.385Z,103.72
2022-12-25T16:33:07.098Z,95.47
2022-12-25T16:35:41.727Z,88.97
2022-12-25T16:38:09.469Z,84.80
2022-12-25T16:40:37.295Z,73.18
2022-12-25T16:43:05.310Z,92.38
2022-12-25T16:45:39.317Z,77.88
2022-12-25T16:48:14.226Z,72.72
2022-12-25T16:50:47.509Z,81.57
2022-12-25T16:53:16.676Z,104.07
2022-12-25T16:55:44.381Z,89.20
2022-12-25T16:58:12.347Z,90.68
2022-12-25T17:00:44.237Z,96.97
2022-12-25T17:03:17.277Z,87.68
2022-12-25T17:05:45.352Z,84.30
2022-12-25T17:08:13.107Z,82.15
2022-12-25T17:10:41.016Z,69.18
2022-12-25T17:13:08.778Z,78.05
2022-12-25T17:15:36.898Z,63.88
2022-12-25T17:18:05.116Z,56.33
2022-12-25T17:20:33.296Z,58.17
2022-12-25T17:23:01.449Z,60.92
2022-12-25T17:25:29.120Z,60.22
2022-12-25T17:27:56.986Z,88.55
2022-12-25T17:30:25.187Z,68.18
2022-12-25T17:32:53.414Z,73.32
2022-12-25T17:35:21.641Z,72.63
2022-12-25T17:37:49.511Z,72.00
2022-12-25T17:40:17.677Z,62.25
2022-12-25T17:42:45.467Z,73.53
2022-12-25T17:45:13.551Z,71.88
2022-12-25T17:47:41.394Z,72.78
2022-12-25T17:50:10.576Z,61.75
2022-12-25T17:52:38.651Z,64.25
2022-12-25T17:55:07.469Z,59.35
2022-12-25T17:57:35.394Z,59.15
2022-12-25T18:00:04.385Z,52.97
2022-12-25T18:02:32.868Z,46.58
2022-12-25T18:05:01.034Z,66.68
2022-12-25T18:07:29.262Z,66.45
2022-12-25T18:09:57.635Z,61.50
2022-12-25T18:12:26.697Z,67.38
2022-12-25T18:14:54.879Z,66.22
2022-12-25T18:17:23.671Z,58.00
2022-12-25T18:19:52.084Z,62.25
2022-12-25T18:22:20.219Z,61.58
2022-12-25T18:24:53.186Z,63.17
2022-12-25T18:27:21.486Z,68.78
2022-12-25T18:29:49.479Z,68.15
2022-12-25T18:32:17.345Z,74.88
2022-12-25T18:34:45.464Z,76.38
2022-12-25T18:37:13.613Z,76.65
2022-12-25T18:39:41.889Z,64.90
2022-12-25T18:42:29.160Z,59.17
2022-12-25T18:45:00.222Z,70.07
2022-12-25T18:47:28.264Z,67.68
2022-12-25T18:49:56.750Z,70.03
2022-12-25T18:52:48.031Z,75.05
2022-12-25T18:55:16.354Z,57.03
2022-12-25T18:57:44.603Z,66.67
2022-12-25T19:00:12.772Z,65.00
2022-12-25T19:02:41.153Z,84.68
2022-12-25T19:05:09.200Z,84.22
2022-12-25T19:07:38.156Z,76.88
2022-12-25T19:10:07.597Z,74.78
2022-12-25T19:12:36.139Z,62.03
2022-12-25T19:15:04.319Z,57.85
2022-12-25T19:17:32.690Z,56.97
2022-12-25T19:20:05.771Z,61.92
2022-12-25T19:22:35.029Z,60.42
2022-12-25T19:25:03.314Z,51.25
2022-12-25T19:27:32.819Z,53.70
2022-12-25T19:30:02.243Z,59.30
2022-12-25T19:32:30.515Z,41.47
2022-12-25T19:35:01.705Z,54.70
2022-12-25T19:37:30.644Z,51.80
2022-12-25T19:39:59.691Z,52.67
2022-12-25T19:42:28.162Z,55.45
2022-12-25T19:44:56.231Z,63.42
2022-12-25T19:47:25.669Z,63.92
2022-12-25T19:49:54.966Z,57.47
2022-12-25T19:52:26.858Z,61.10
2022-12-25T19:54:55.641Z,59.67
2022-12-25T19:57:24.538Z,57.50
2022-12-25T19:59:54.460Z,65.20
2022-12-25T20:02:26.552Z,63.03
2022-12-25T20:04:55.047Z,65.35
2022-12-25T20:07:25.145Z,60.55
2022-12-25T20:09:56.008Z,67.03
2022-12-25T20:12:25.712Z,74.78
2022-12-25T20:14:55.650Z,67.13
2022-12-25T20:17:23.942Z,59.17
2022-12-25T20:19:53.289Z,45.63
2022-12-25T20:22:21.998Z,51.13
2022-12-25T20:24:50.355Z,61.03
2022-12-25T20:27:20.210Z,60.60
2022-12-25T20:29:48.680Z,61.13
2022-12-25T20:32:17.635Z,55.63
2022-12-25T20:34:45.840Z,54.88
2022-12-25T20:37:16.987Z,49.53
2022-12-25T20:39:47.256Z,40.75
2022-12-25T20:42:17.353Z,47.63
2022-12-25T20:44:45.748Z,37.70
2022-12-25T20:47:13.758Z,37.17
2022-12-25T20:49:42.082Z,41.15
2022-12-25T20:52:11.866Z,37.55
2022-12-25T20:54:42.609Z,40.78
2022-12-25T20:57:11.059Z,42.20
2022-12-25T20:59:40.440Z,37.30
2022-12-25T21:02:33.291Z,28.15
2022-12-25T21:05:01.758Z,41.38
2022-12-25T21:07:29.786Z,33.65
2022-12-25T21:09:59.875Z,38.15
2022-12-25T21:12:27.749Z,37.20
2022-12-25T21:14:55.979Z,32.30
2022-12-25T21:17:24.292Z,34.42
2022-12-25T21:19:52.132Z,32.20
2022-12-25T21:22:20.797Z,35.78
2022-12-25T21:24:52.556Z,32.50
2022-12-25T21:27:20.595Z,35.83
2022-12-25T21:29:48.623Z,35.33
2022-12-25T21:32:37.824Z,35.92
2022-12-25T21:35:06.686Z,35.75
2022-12-25T21:37:35.682Z,38.28
2022-12-25T21:40:03.730Z,40.67
2022-12-25T21:42:34.283Z,39.17
2022-12-25T21:45:03.254Z,42.72
2022-12-25T21:48:02.046Z,34.53
2022-12-25T21:50:39.451Z,36.97
2022-12-25T21:53:09.002Z,34.10
2022-12-25T21:55:36.726Z,36.13
2022-12-25T21:58:06.629Z,30.88
2022-12-25T22:00:34.711Z,30.30
2022-12-25T22:03:03.099Z,30.05
2022-12-25T22:05:49.607Z,30.27
2022-12-25T22:08:17.971Z,30.05
2022-12-25T22:10:47.382Z,35.72
2022-12-25T22:13:34.076Z,41.45
2022-12-25T22:16:25.017Z,37.13
2022-12-25T22:19:11.334Z,36.95
2022-12-25T22:21:40.300Z,36.70
2022-12-25T22:24:08.724Z,32.88
2022-12-25T22:26:37.043Z,35.03
2022-12-25T22:29:05.248Z,32.17
2022-12-25T22:31:33.345Z,33.17
2022-12-25T22:34:01.665Z,31.90
2022-12-25T22:36:29.849Z,29.10
2022-12-25T22:38:57.856Z,31.55
2022-12-25T22:41:29.871Z,29.25
2022-12-25T22:44:18.136Z,27.40
2022-12-25T22:46:46.576Z,26.55
2022-12-25T22:49:16.255Z,27.63
2022-12-25T22:51:47.951Z,28.38
2022-12-25T22:54:17.717Z,28.35
2022-12-25T22:56:47.883Z,27.08
2022-12-25T22:59:20.510Z,30.95
2022-12-25T23:01:52.638Z,29.33
2022-12-25T23:04:20.780Z,38.78
2022-12-25T23:06:48.636Z,36.88
2022-12-25T23:09:24.224Z,47.70
2022-12-25T23:11:52.729Z,36.38
2022-12-25T23:14:39.074Z,30.00
2022-12-25T23:17:31.396Z,32.00
2022-12-25T23:20:20.662Z,49.90
2022-12-25T23:23:07.396Z,38.88
2022-12-25T23:25:54.154Z,37.63
2022-12-25T23:28:40.997Z,42.35
2022-12-25T23:31:09.702Z,43.05
2022-12-25T23:33:37.515Z,41.33
2022-12-25T23:36:06.221Z,40.38
2022-12-25T23:38:34.073Z,39.15
2022-12-25T23:41:01.569Z,38.50
2022-12-25T23:43:29.501Z,41.50
2022-12-25T23:45:57.312Z,37.67
2022-12-25T23:48:24.949Z,38.10
2022-12-25T23:50:52.786Z,40.35
2022-12-25T23:53:20.790Z,36.78
2022-12-25T23:55:55.345Z,35.58
2022-12-25T23:58:28.138Z,35.30
